TFM - Tactical Decision Aid
ID: Runway Winds: CIG/VIS Threshold:

KLGA - New York/La Guardia, NY, US

Updated at: 0207 UTC 12 May 2021
Latest TAF at: 2336 UTC 11 May 2021

TAF Board

Time0151Z 12/03Z 12/04Z 12/05Z 12/06Z 12/07Z 12/08Z 12/09Z 12/10Z 12/11Z 12/12Z 12/13Z 12/14Z 12/15Z>>
Type OBS PRVL PRVL PRVL PRVL PRVL PRVL PRVL PRVL PRVL PRVL PRVL PRVL PRVL
VIS 10 >6 >6 >6 >6 >6 >6 >6 >6 >6 >6 >6 >6 >6
CIG 90 100 100 100 100 100 100 100 100 -- -- -- -- --
Cover BKN BKN BKN BKN BKN BKN BKN BKN BKN SCT SCT SCT SCT SCT
FltCat VFR VFR VFR VFR VFR VFR VFR VFR VFR VFR VFR VFR VFR VFR
WX -- -- -- -- -- -- -- -- -- -- -- -- -- --
WDir 310 300 300 300 300 300 300 300 300 330 330 330 330 330
WSpd 14 12 12 12 12 12 12 12 12 12 12 12 12 12
WGst 23 -- -- -- -- -- -- -- -- 20 20 20 20 20

TDA Impact Legend

  None Marginal Slight Moderate High
Visibility (sm) >5 3≤X≤5 1≤X<3 0.5≤X<1 <0.5
Ceiling (100 ft) >30 10≤X≤30 4≤X<10 2≤X<4 <2
Wind Speed (kt) <15 15≤X<25 25≤X<30 ≥30
Wind Gust (kt) <15 15≤X<25 25≤X<35 ≥35
Weather No Wx Reported VCTS -TS,-FZRA TS,FZRA +TS,+FZRA
TAF
KLGA 112336Z 1200/1306 28013G18KT P6SM VCSH BKN060
  FM120100 30012KT P6SM SCT060 BKN100 BKN250
  FM121100 33012G20KT P6SM SCT050 SCT100
  FM122200 32011KT P6SM SCT250
  FM130200 33007KT P6SM FEW250


METAR
KLGA 120151Z 31014G23KT 10SM SCT075 BKN090 BKN250 14/01 A3005 RMK AO2 SLP176 T01440011
KLGA 120051Z 29010KT 10SM SCT065 SCT110 SCT250 15/00 A3003 RMK AO2 SLP167 T01500000
KLGA 112351Z 31016KT 10SM SCT085 SCT110 SCT200 16/01 A3001 RMK AO2 SLP161 T01560011 10200 20156 53013
KLGA 112251Z 29014G26KT 10SM SCT075 BKN095 17/M01 A2999 RMK AO2 PK WND 30027/2235 SLP155 T01721006

Radar Display
Forecast Discussion